sensor_id;sensor_type;location;lat;lon;timestamp;pressure;altitude;pressure_sealevel;temperature;humidity
48530;BME280;34927;37.302;-121.982;2023-02-03T00:00:57;101510.0;;;22.04;26.78
48530;BME280;34927;37.302;-121.982;2023-02-03T00:02:01;101512.0;;;22.06;26.75
48530;BME280;34927;37.302;-121.982;2023-02-03T00:03:07;101513.0;;;22.04;26.78
48530;BME280;34927;37.302;-121.982;2023-02-03T00:04:12;101521.0;;;22.03;26.76
48530;BME280;34927;37.302;-121.982;2023-02-03T00:05:16;101521.0;;;22.04;26.77
48530;BME280;34927;37.302;-121.982;2023-02-03T00:06:22;101523.0;;;22.05;26.75
48530;BME280;34927;37.302;-121.982;2023-02-03T00:07:27;101531.0;;;22.01;26.74
48530;BME280;34927;37.302;-121.982;2023-02-03T00:08:32;101535.0;;;22.03;26.72
48530;BME280;34927;37.302;-121.982;2023-02-03T00:09:36;101535.0;;;22.01;26.72
48530;BME280;34927;37.302;-121.982;2023-02-03T00:10:42;101540.0;;;21.98;26.72
48530;BME280;34927;37.302;-121.982;2023-02-03T00:11:47;101546.0;;;21.97;26.72
48530;BME280;34927;37.302;-121.982;2023-02-03T00:12:52;101540.0;;;21.96;26.71
48530;BME280;34927;37.302;-121.982;2023-02-03T00:13:56;101547.0;;;21.91;26.75
48530;BME280;34927;37.302;-121.982;2023-02-03T00:15:02;101554.0;;;21.91;26.70
48530;BME280;34927;37.302;-121.982;2023-02-03T00:16:07;101564.0;;;21.94;26.69
48530;BME280;34927;37.302;-121.982;2023-02-03T00:17:11;101570.0;;;21.93;26.73
48530;BME280;34927;37.302;-121.982;2023-02-03T00:18:17;101571.0;;;21.90;26.64
48530;BME280;34927;37.302;-121.982;2023-02-03T00:19:22;101576.0;;;21.87;26.69
48530;BME280;34927;37.302;-121.982;2023-02-03T00:20:27;101573.0;;;21.91;26.66
48530;BME280;34927;37.302;-121.982;2023-02-03T00:21:32;101581.0;;;21.90;26.63
48530;BME280;34927;37.302;-121.982;2023-02-03T00:22:36;101583.0;;;21.87;26.68
48530;BME280;34927;37.302;-121.982;2023-02-03T00:23:41;101588.0;;;21.87;26.63
48530;BME280;34927;37.302;-121.982;2023-02-03T00:24:46;101589.0;;;21.90;26.67
48530;BME280;34927;37.302;-121.982;2023-02-03T00:25:52;101593.0;;;21.83;26.74
48530;BME280;34927;37.302;-121.982;2023-02-03T00:26:57;101589.0;;;21.78;26.77
48530;BME280;34927;37.302;-121.982;2023-02-03T00:28:02;101582.0;;;21.79;26.80
48530;BME280;34927;37.302;-121.982;2023-02-03T00:29:06;101588.0;;;21.81;26.84
48530;BME280;34927;37.302;-121.982;2023-02-03T00:30:12;101588.0;;;21.74;26.83
48530;BME280;34927;37.302;-121.982;2023-02-03T00:31:19;101595.0;;;21.78;26.80
48530;BME280;34927;37.302;-121.982;2023-02-03T00:32:21;101589.0;;;21.77;26.77
48530;BME280;34927;37.302;-121.982;2023-02-03T00:33:27;101606.0;;;21.80;26.73
48530;BME280;34927;37.302;-121.982;2023-02-03T00:34:33;101598.0;;;21.76;26.60
48530;BME280;34927;37.302;-121.982;2023-02-03T00:35:37;101600.0;;;21.77;26.67
48530;BME280;34927;37.302;-121.982;2023-02-03T00:36:42;101602.0;;;21.83;26.62
48530;BME280;34927;37.302;-121.982;2023-02-03T00:37:50;101601.0;;;21.85;26.64
48530;BME280;34927;37.302;-121.982;2023-02-03T00:38:56;101606.0;;;21.85;26.51
48530;BME280;34927;37.302;-121.982;2023-02-03T00:40:01;101603.0;;;21.83;26.45
48530;BME280;34927;37.302;-121.982;2023-02-03T00:41:07;101602.0;;;21.86;26.51
48530;BME280;34927;37.302;-121.982;2023-02-03T00:42:11;101603.0;;;21.79;26.67
48530;BME280;34927;37.302;-121.982;2023-02-03T00:43:17;101609.0;;;21.78;26.86
48530;BME280;34927;37.302;-121.982;2023-02-03T00:44:22;101605.0;;;21.97;27.05
48530;BME280;34927;37.302;-121.982;2023-02-03T00:45:27;101609.0;;;22.02;27.30
48530;BME280;34927;37.302;-121.982;2023-02-03T00:46:31;101603.0;;;22.08;27.22
48530;BME280;34927;37.302;-121.982;2023-02-03T00:47:37;101603.0;;;22.08;27.52
48530;BME280;34927;37.302;-121.982;2023-02-03T00:48:41;101602.0;;;22.08;27.44
48530;BME280;34927;37.302;-121.982;2023-02-03T00:49:47;101601.0;;;22.22;27.15
48530;BME280;34927;37.302;-121.982;2023-02-03T00:50:51;101600.0;;;22.22;27.68
48530;BME280;34927;37.302;-121.982;2023-02-03T00:51:57;101602.0;;;22.32;27.50
48530;BME280;34927;37.302;-121.982;2023-02-03T00:53:01;101600.0;;;22.16;27.88
48530;BME280;34927;37.302;-121.982;2023-02-03T00:54:07;101602.0;;;22.14;27.91
48530;BME280;34927;37.302;-121.982;2023-02-03T00:55:11;101601.0;;;22.26;27.84
48530;BME280;34927;37.302;-121.982;2023-02-03T00:56:17;101602.0;;;22.10;28.20
48530;BME280;34927;37.302;-121.982;2023-02-03T00:57:21;101601.0;;;22.03;28.24
48530;BME280;34927;37.302;-121.982;2023-02-03T00:58:27;101601.0;;;22.12;28.19
48530;BME280;34927;37.302;-121.982;2023-02-03T00:59:31;101602.0;;;22.30;27.96
48530;BME280;34927;37.302;-121.982;2023-02-03T01:00:36;101600.0;;;22.22;28.07
48530;BME280;34927;37.302;-121.982;2023-02-03T01:01:42;101600.0;;;22.28;27.80
48530;BME280;34927;37.302;-121.982;2023-02-03T01:02:47;101597.0;;;22.35;27.99
48530;BME280;34927;37.302;-121.982;2023-02-03T01:03:54;101596.0;;;22.26;28.15
48530;BME280;34927;37.302;-121.982;2023-02-03T01:04:57;101594.0;;;22.19;28.29
48530;BME280;34927;37.302;-121.982;2023-02-03T01:06:10;101594.0;;;22.17;28.45
48530;BME280;34927;37.302;-121.982;2023-02-03T01:07:16;101592.0;;;22.37;28.27
48530;BME280;34927;37.302;-121.982;2023-02-03T01:08:22;101588.0;;;22.32;28.19
48530;BME280;34927;37.302;-121.982;2023-02-03T01:09:26;101591.0;;;22.38;28.04
48530;BME280;34927;37.302;-121.982;2023-02-03T01:10:32;101590.0;;;22.30;28.32
48530;BME280;34927;37.302;-121.982;2023-02-03T01:11:37;101588.0;;;22.34;28.27
48530;BME280;34927;37.302;-121.982;2023-02-03T01:12:41;101588.0;;;22.18;28.45
48530;BME280;34927;37.302;-121.982;2023-02-03T01:13:47;101587.0;;;22.21;28.33
48530;BME280;34927;37.302;-121.982;2023-02-03T01:14:52;101592.0;;;22.42;28.15
48530;BME280;34927;37.302;-121.982;2023-02-03T01:15:56;101590.0;;;22.28;28.28
48530;BME280;34927;37.302;-121.982;2023-02-03T01:17:01;101591.0;;;22.25;28.51
48530;BME280;34927;37.302;-121.982;2023-02-03T01:18:07;101589.0;;;22.22;28.56
48530;BME280;34927;37.302;-121.982;2023-02-03T01:19:12;101582.0;;;22.13;28.72
48530;BME280;34927;37.302;-121.982;2023-02-03T01:20:17;101581.0;;;22.27;28.82
48530;BME280;34927;37.302;-121.982;2023-02-03T01:21:23;101582.0;;;22.29;28.44
48530;BME280;34927;37.302;-121.982;2023-02-03T01:22:29;101580.0;;;22.11;27.67
48530;BME280;34927;37.302;-121.982;2023-02-03T01:23:33;101577.0;;;22.04;27.39
48530;BME280;34927;37.302;-121.982;2023-02-03T01:24:36;101580.0;;;21.80;27.42
48530;BME280;34927;37.302;-121.982;2023-02-03T01:25:42;101581.0;;;21.92;27.20
48530;BME280;34927;37.302;-121.982;2023-02-03T01:26:46;101578.0;;;21.71;27.23
48530;BME280;34927;37.302;-121.982;2023-02-03T01:27:52;101579.0;;;21.78;27.21
48530;BME280;34927;37.302;-121.982;2023-02-03T01:28:57;101579.0;;;21.70;27.25
48530;BME280;34927;37.302;-121.982;2023-02-03T01:30:02;101583.0;;;21.71;27.33
48530;BME280;34927;37.302;-121.982;2023-02-03T01:31:13;101580.0;;;21.85;27.22
48530;BME280;34927;37.302;-121.982;2023-02-03T01:32:17;101576.0;;;21.66;27.66
48530;BME280;34927;37.302;-121.982;2023-02-03T01:33:21;101575.0;;;21.75;27.47
48530;BME280;34927;37.302;-121.982;2023-02-03T01:34:27;101571.0;;;21.94;27.31
48530;BME280;34927;37.302;-121.982;2023-02-03T01:35:33;101571.0;;;21.88;27.32
48530;BME280;34927;37.302;-121.982;2023-02-03T01:36:37;101567.0;;;21.96;27.32
48530;BME280;34927;37.302;-121.982;2023-02-03T01:37:41;101570.0;;;21.96;27.45
48530;BME280;34927;37.302;-121.982;2023-02-03T01:38:47;101572.0;;;21.92;27.49
48530;BME280;34927;37.302;-121.982;2023-02-03T01:39:52;101576.0;;;21.96;27.41
48530;BME280;34927;37.302;-121.982;2023-02-03T01:40:56;101576.0;;;21.95;27.34
48530;BME280;34927;37.302;-121.982;2023-02-03T01:42:02;101575.0;;;21.79;27.71
48530;BME280;34927;37.302;-121.982;2023-02-03T01:43:08;101570.0;;;21.89;27.49
48530;BME280;34927;37.302;-121.982;2023-02-03T01:45:27;101566.0;;;22.00;27.55
48530;BME280;34927;37.302;-121.982;2023-02-03T01:46:35;101556.0;;;21.97;27.67
48530;BME280;34927;37.302;-121.982;2023-02-03T01:47:46;101547.0;;;21.96;27.72
48530;BME280;34927;37.302;-121.982;2023-02-03T01:48:53;101543.0;;;21.96;27.72
48530;BME280;34927;37.302;-121.982;2023-02-03T01:50:02;101534.0;;;21.97;27.76
48530;BME280;34927;37.302;-121.982;2023-02-03T01:51:11;101530.0;;;22.00;27.40
48530;BME280;34927;37.302;-121.982;2023-02-03T01:52:17;101520.0;;;22.08;27.60
48530;BME280;34927;37.302;-121.982;2023-02-03T01:53:22;101522.0;;;22.38;27.33
48530;BME280;34927;37.302;-121.982;2023-02-03T01:54:29;101526.0;;;22.60;26.98
48530;BME280;34927;37.302;-121.982;2023-02-03T01:55:41;101522.0;;;23.00;26.42
48530;BME280;34927;37.302;-121.982;2023-02-03T01:56:51;101526.0;;;23.32;25.92
48530;BME280;34927;37.302;-121.982;2023-02-03T01:57:59;101533.0;;;23.63;25.49
48530;BME280;34927;37.302;-121.982;2023-02-03T01:59:07;101538.0;;;23.93;25.03
48530;BME280;34927;37.302;-121.982;2023-02-03T02:00:12;101539.0;;;24.17;24.70
48530;BME280;34927;37.302;-121.982;2023-02-03T02:01:17;101539.0;;;24.39;24.44
48530;BME280;34927;37.302;-121.982;2023-02-03T02:02:22;101542.0;;;24.54;24.21
48530;BME280;34927;37.302;-121.982;2023-02-03T02:03:30;101543.0;;;24.73;23.94
48530;BME280;34927;37.302;-121.982;2023-02-03T02:04:47;101551.0;;;24.88;23.75
48530;BME280;34927;37.302;-121.982;2023-02-03T02:05:55;101553.0;;;24.96;23.57
48530;BME280;34927;37.302;-121.982;2023-02-03T02:07:02;101546.0;;;25.14;23.42
48530;BME280;34927;37.302;-121.982;2023-02-03T02:08:07;101544.0;;;25.18;23.28
48530;BME280;34927;37.302;-121.982;2023-02-03T02:09:11;101547.0;;;24.93;23.41
48530;BME280;34927;37.302;-121.982;2023-02-03T02:10:17;101552.0;;;24.77;23.70
48530;BME280;34927;37.302;-121.982;2023-02-03T02:11:22;101547.0;;;24.63;24.06
48530;BME280;34927;37.302;-121.982;2023-02-03T02:12:27;101544.0;;;24.25;24.66
48530;BME280;34927;37.302;-121.982;2023-02-03T02:13:33;101538.0;;;23.94;25.01
48530;BME280;34927;37.302;-121.982;2023-02-03T02:14:37;101537.0;;;23.74;25.17
48530;BME280;34927;37.302;-121.982;2023-02-03T02:17:01;101536.0;;;23.93;24.80
48530;BME280;34927;37.302;-121.982;2023-02-03T02:18:21;101532.0;;;24.14;24.45
48530;BME280;34927;37.302;-121.982;2023-02-03T02:22:14;101527.0;;;24.93;23.24
48530;BME280;34927;37.302;-121.982;2023-02-03T02:23:42;101525.0;;;25.13;22.83
48530;BME280;34927;37.302;-121.982;2023-02-03T02:25:18;101527.0;;;25.39;22.38
48530;BME280;34927;37.302;-121.982;2023-02-03T02:26:50;101530.0;;;25.49;22.15
48530;BME280;34927;37.302;-121.982;2023-02-03T02:30:39;101529.0;;;24.99;22.48
48530;BME280;34927;37.302;-121.982;2023-02-03T02:32:03;101526.0;;;25.07;22.30
48530;BME280;34927;37.302;-121.982;2023-02-03T02:33:13;101521.0;;;25.26;22.31
48530;BME280;34927;37.302;-121.982;2023-02-03T02:34:27;101518.0;;;25.38;22.13
48530;BME280;34927;37.302;-121.982;2023-02-03T02:35:49;101517.0;;;25.27;22.26
48530;BME280;34927;37.302;-121.982;2023-02-03T02:37:02;101509.0;;;25.07;22.64
48530;BME280;34927;37.302;-121.982;2023-02-03T02:38:19;101516.0;;;24.86;22.93
48530;BME280;34927;37.302;-121.982;2023-02-03T02:39:36;101515.0;;;24.74;22.97
48530;BME280;34927;37.302;-121.982;2023-02-03T02:40:49;101519.0;;;24.36;23.39
48530;BME280;34927;37.302;-121.982;2023-02-03T02:42:00;101527.0;;;24.15;23.62
48530;BME280;34927;37.302;-121.982;2023-02-03T02:43:10;101516.0;;;24.00;23.75
48530;BME280;34927;37.302;-121.982;2023-02-03T02:44:20;101517.0;;;23.94;23.96
48530;BME280;34927;37.302;-121.982;2023-02-03T02:45:30;101515.0;;;23.87;23.87
48530;BME280;34927;37.302;-121.982;2023-02-03T02:46:40;101507.0;;;23.77;23.79
48530;BME280;34927;37.302;-121.982;2023-02-03T02:47:47;101504.0;;;23.80;23.58
48530;BME280;34927;37.302;-121.982;2023-02-03T02:48:56;101506.0;;;24.01;23.52
48530;BME280;34927;37.302;-121.982;2023-02-03T02:50:12;101497.0;;;24.32;23.15
48530;BME280;34927;37.302;-121.982;2023-02-03T02:51:23;101522.0;;;24.65;22.72
48530;BME280;34927;37.302;-121.982;2023-02-03T02:52:29;101525.0;;;24.92;22.45
48530;BME280;34927;37.302;-121.982;2023-02-03T02:53:39;101524.0;;;25.13;22.23
48530;BME280;34927;37.302;-121.982;2023-02-03T02:54:50;101524.0;;;25.32;21.95
48530;BME280;34927;37.302;-121.982;2023-02-03T02:55:58;101524.0;;;25.23;22.00
48530;BME280;34927;37.302;-121.982;2023-02-03T02:57:04;101526.0;;;25.08;22.19
48530;BME280;34927;37.302;-121.982;2023-02-03T02:58:09;101532.0;;;24.88;22.61
48530;BME280;34927;37.302;-121.982;2023-02-03T02:59:17;101528.0;;;24.67;22.96
48530;BME280;34927;37.302;-121.982;2023-02-03T03:00:22;101529.0;;;24.48;22.97
48530;BME280;34927;37.302;-121.982;2023-02-03T03:01:27;101527.0;;;24.16;23.34
48530;BME280;34927;37.302;-121.982;2023-02-03T03:02:32;101524.0;;;24.17;23.24
48530;BME280;34927;37.302;-121.982;2023-02-03T03:03:36;101525.0;;;23.91;23.56
48530;BME280;34927;37.302;-121.982;2023-02-03T03:04:43;101526.0;;;23.76;23.65
48530;BME280;34927;37.302;-121.982;2023-02-03T03:05:54;101523.0;;;23.61;23.73
48530;BME280;34927;37.302;-121.982;2023-02-03T03:07:07;101521.0;;;23.63;23.79
48530;BME280;34927;37.302;-121.982;2023-02-03T03:08:12;101520.0;;;23.81;23.69
48530;BME280;34927;37.302;-121.982;2023-02-03T03:09:20;101525.0;;;23.86;23.48
48530;BME280;34927;37.302;-121.982;2023-02-03T03:10:29;101524.0;;;24.13;23.17
48530;BME280;34927;37.302;-121.982;2023-02-03T03:11:42;101528.0;;;24.41;22.84
48530;BME280;34927;37.302;-121.982;2023-02-03T03:12:52;101525.0;;;24.77;22.44
48530;BME280;34927;37.302;-121.982;2023-02-03T03:13:57;101520.0;;;25.01;22.11
48530;BME280;34927;37.302;-121.982;2023-02-03T03:15:05;101522.0;;;25.29;21.84
48530;BME280;34927;37.302;-121.982;2023-02-03T03:16:13;101520.0;;;25.34;21.73
48530;BME280;34927;37.302;-121.982;2023-02-03T03:17:25;101515.0;;;24.99;22.04
48530;BME280;34927;37.302;-121.982;2023-02-03T03:18:35;101515.0;;;24.82;22.29
48530;BME280;34927;37.302;-121.982;2023-02-03T03:19:46;101516.0;;;24.63;22.53
48530;BME280;34927;37.302;-121.982;2023-02-03T03:20:55;101513.0;;;24.59;22.59
48530;BME280;34927;37.302;-121.982;2023-02-03T03:22:05;101506.0;;;24.46;22.73
48530;BME280;34927;37.302;-121.982;2023-02-03T03:23:17;101507.0;;;24.35;22.87
48530;BME280;34927;37.302;-121.982;2023-02-03T03:24:24;101511.0;;;24.32;22.97
48530;BME280;34927;37.302;-121.982;2023-02-03T03:25:38;101499.0;;;24.02;23.64
48530;BME280;34927;37.302;-121.982;2023-02-03T03:26:51;101507.0;;;23.82;23.96
48530;BME280;34927;37.302;-121.982;2023-02-03T03:28:00;101509.0;;;23.79;24.01
48530;BME280;34927;37.302;-121.982;2023-02-03T03:29:14;101502.0;;;23.81;23.97
48530;BME280;34927;37.302;-121.982;2023-02-03T03:30:21;101500.0;;;23.64;24.27
48530;BME280;34927;37.302;-121.982;2023-02-03T03:31:33;101497.0;;;23.62;24.15
48530;BME280;34927;37.302;-121.982;2023-02-03T03:32:37;101494.0;;;23.66;23.86
48530;BME280;34927;37.302;-121.982;2023-02-03T03:33:42;101487.0;;;23.86;23.69
48530;BME280;34927;37.302;-121.982;2023-02-03T03:34:46;101486.0;;;24.19;23.37
48530;BME280;34927;37.302;-121.982;2023-02-03T03:35:58;101487.0;;;24.50;23.01
48530;BME280;34927;37.302;-121.982;2023-02-03T03:37:12;101482.0;;;24.83;22.58
48530;BME280;34927;37.302;-121.982;2023-02-03T03:38:26;101484.0;;;25.13;22.30
48530;BME280;34927;37.302;-121.982;2023-02-03T03:39:36;101486.0;;;25.26;22.14
48530;BME280;34927;37.302;-121.982;2023-02-03T03:40:51;101485.0;;;25.16;22.34
48530;BME280;34927;37.302;-121.982;2023-02-03T03:42:01;101491.0;;;25.13;22.38
48530;BME280;34927;37.302;-121.982;2023-02-03T03:43:12;101487.0;;;24.75;22.98
48530;BME280;34927;37.302;-121.982;2023-02-03T03:44:18;101494.0;;;24.43;23.40
48530;BME280;34927;37.302;-121.982;2023-02-03T03:45:30;101497.0;;;24.18;23.63
48530;BME280;34927;37.302;-121.982;2023-02-03T03:46:42;101490.0;;;24.14;23.54
48530;BME280;34927;37.302;-121.982;2023-02-03T03:47:50;101498.0;;;23.98;23.66
48530;BME280;34927;37.302;-121.982;2023-02-03T03:49:00;101501.0;;;23.82;23.90
48530;BME280;34927;37.302;-121.982;2023-02-03T03:50:12;101502.0;;;23.64;24.19
48530;BME280;34927;37.302;-121.982;2023-02-03T03:51:19;101500.0;;;23.63;24.18
48530;BME280;34927;37.302;-121.982;2023-02-03T03:52:29;101500.0;;;23.78;23.94
48530;BME280;34927;37.302;-121.982;2023-02-03T03:53:39;101500.0;;;23.64;24.26
48530;BME280;34927;37.302;-121.982;2023-02-03T03:54:48;101504.0;;;23.57;24.11
48530;BME280;34927;37.302;-121.982;2023-02-03T03:55:53;101499.0;;;23.40;24.30
48530;BME280;34927;37.302;-121.982;2023-02-03T03:56:59;101494.0;;;23.43;24.27
48530;BME280;34927;37.302;-121.982;2023-02-03T03:58:10;101496.0;;;23.71;23.85
48530;BME280;34927;37.302;-121.982;2023-02-03T03:59:20;101493.0;;;24.03;23.47
48530;BME280;34927;37.302;-121.982;2023-02-03T04:00:29;101497.0;;;24.39;23.04
48530;BME280;34927;37.302;-121.982;2023-02-03T04:01:31;101492.0;;;24.73;22.62
48530;BME280;34927;37.302;-121.982;2023-02-03T04:02:38;101489.0;;;25.04;22.27
48530;BME280;34927;37.302;-121.982;2023-02-03T04:03:48;101492.0;;;25.10;22.14
48530;BME280;34927;37.302;-121.982;2023-02-03T04:04:52;101492.0;;;24.99;22.32
48530;BME280;34927;37.302;-121.982;2023-02-03T04:05:57;101485.0;;;24.89;22.48
48530;BME280;34927;37.302;-121.982;2023-02-03T04:07:02;101494.0;;;24.61;22.89
48530;BME280;34927;37.302;-121.982;2023-02-03T04:08:06;101495.0;;;24.40;23.15
48530;BME280;34927;37.302;-121.982;2023-02-03T04:09:11;101490.0;;;24.15;23.52
48530;BME280;34927;37.302;-121.982;2023-02-03T04:10:23;101483.0;;;23.97;23.78
48530;BME280;34927;37.302;-121.982;2023-02-03T04:11:31;101480.0;;;23.77;24.16
48530;BME280;34927;37.302;-121.982;2023-02-03T04:12:36;101481.0;;;23.63;24.29
48530;BME280;34927;37.302;-121.982;2023-02-03T04:13:42;101486.0;;;23.47;24.50
48530;BME280;34927;37.302;-121.982;2023-02-03T04:14:47;101477.0;;;23.38;24.65
48530;BME280;34927;37.302;-121.982;2023-02-03T04:15:52;101476.0;;;23.29;24.77
48530;BME280;34927;37.302;-121.982;2023-02-03T04:16:57;101481.0;;;23.34;24.74
48530;BME280;34927;37.302;-121.982;2023-02-03T04:18:03;101486.0;;;23.42;24.75
48530;BME280;34927;37.302;-121.982;2023-02-03T04:19:07;101481.0;;;23.39;24.84
48530;BME280;34927;37.302;-121.982;2023-02-03T04:20:13;101485.0;;;23.33;24.98
48530;BME280;34927;37.302;-121.982;2023-02-03T04:21:17;101488.0;;;23.26;25.13
48530;BME280;34927;37.302;-121.982;2023-02-03T04:22:22;101490.0;;;23.25;25.13
48530;BME280;34927;37.302;-121.982;2023-02-03T04:23:27;101486.0;;;23.21;25.32
48530;BME280;34927;37.302;-121.982;2023-02-03T04:24:31;101488.0;;;23.24;25.07
48530;BME280;34927;37.302;-121.982;2023-02-03T04:25:37;101487.0;;;23.56;25.40
48530;BME280;34927;37.302;-121.982;2023-02-03T04:26:42;101488.0;;;23.95;25.31
48530;BME280;34927;37.302;-121.982;2023-02-03T04:27:47;101486.0;;;24.32;24.93
48530;BME280;34927;37.302;-121.982;2023-02-03T04:28:51;101490.0;;;24.63;24.55
48530;BME280;34927;37.302;-121.982;2023-02-03T04:29:57;101494.0;;;24.96;24.21
48530;BME280;34927;37.302;-121.982;2023-02-03T04:31:02;101488.0;;;25.19;23.98
48530;BME280;34927;37.302;-121.982;2023-02-03T04:32:06;101489.0;;;25.11;24.04
48530;BME280;34927;37.302;-121.982;2023-02-03T04:33:12;101490.0;;;24.96;24.23
48530;BME280;34927;37.302;-121.982;2023-02-03T04:34:17;101493.0;;;24.88;24.44
48530;BME280;34927;37.302;-121.982;2023-02-03T04:35:22;101492.0;;;24.80;24.57
48530;BME280;34927;37.302;-121.982;2023-02-03T04:36:27;101498.0;;;24.42;24.88
48530;BME280;34927;37.302;-121.982;2023-02-03T04:37:32;101496.0;;;24.37;25.05
48530;BME280;34927;37.302;-121.982;2023-02-03T04:38:37;101497.0;;;24.10;25.30
48530;BME280;34927;37.302;-121.982;2023-02-03T04:39:42;101498.0;;;24.06;25.40
48530;BME280;34927;37.302;-121.982;2023-02-03T04:40:47;101496.0;;;23.78;25.69
48530;BME280;34927;37.302;-121.982;2023-02-03T04:41:51;101495.0;;;23.71;25.96
48530;BME280;34927;37.302;-121.982;2023-02-03T04:42:56;101498.0;;;23.64;25.80
48530;BME280;34927;37.302;-121.982;2023-02-03T04:44:02;101499.0;;;23.65;25.93
48530;BME280;34927;37.302;-121.982;2023-02-03T04:45:09;101494.0;;;23.74;25.73
48530;BME280;34927;37.302;-121.982;2023-02-03T04:46:12;101493.0;;;23.76;25.76
48530;BME280;34927;37.302;-121.982;2023-02-03T04:47:17;101494.0;;;23.69;25.79
48530;BME280;34927;37.302;-121.982;2023-02-03T04:48:22;101493.0;;;23.78;25.64
48530;BME280;34927;37.302;-121.982;2023-02-03T04:49:26;101494.0;;;23.80;25.42
48530;BME280;34927;37.302;-121.982;2023-02-03T04:50:32;101493.0;;;24.01;25.35
48530;BME280;34927;37.302;-121.982;2023-02-03T04:51:37;101498.0;;;24.25;25.00
48530;BME280;34927;37.302;-121.982;2023-02-03T04:52:42;101499.0;;;24.60;24.77
48530;BME280;34927;37.302;-121.982;2023-02-03T04:53:46;101499.0;;;24.90;24.45
48530;BME280;34927;37.302;-121.982;2023-02-03T04:54:52;101499.0;;;25.14;24.18
48530;BME280;34927;37.302;-121.982;2023-02-03T04:55:57;101504.0;;;25.17;24.13
48530;BME280;34927;37.302;-121.982;2023-02-03T04:57:02;101503.0;;;25.04;24.44
48530;BME280;34927;37.302;-121.982;2023-02-03T04:58:07;101504.0;;;24.87;24.84
48530;BME280;34927;37.302;-121.982;2023-02-03T04:59:11;101508.0;;;24.53;25.55
48530;BME280;34927;37.302;-121.982;2023-02-03T05:00:17;101510.0;;;24.35;25.54
48530;BME280;34927;37.302;-121.982;2023-02-03T05:01:21;101515.0;;;24.20;25.59
48530;BME280;34927;37.302;-121.982;2023-02-03T05:02:26;101511.0;;;24.18;25.53
48530;BME280;34927;37.302;-121.982;2023-02-03T05:03:32;101518.0;;;24.18;25.31
48530;BME280;34927;37.302;-121.982;2023-02-03T05:04:36;101518.0;;;23.94;25.67
48530;BME280;34927;37.302;-121.982;2023-02-03T05:05:42;101518.0;;;23.78;25.90
48530;BME280;34927;37.302;-121.982;2023-02-03T05:06:47;101521.0;;;23.70;25.92
48530;BME280;34927;37.302;-121.982;2023-02-03T05:07:51;101517.0;;;23.60;25.96
48530;BME280;34927;37.302;-121.982;2023-02-03T05:08:57;101515.0;;;23.70;25.80
48530;BME280;34927;37.302;-121.982;2023-02-03T05:10:02;101514.0;;;23.70;25.92
48530;BME280;34927;37.302;-121.982;2023-02-03T05:11:07;101509.0;;;23.68;25.86
48530;BME280;34927;37.302;-121.982;2023-02-03T05:12:11;101507.0;;;23.71;25.72
48530;BME280;34927;37.302;-121.982;2023-02-03T05:13:16;101504.0;;;23.91;25.48
48530;BME280;34927;37.302;-121.982;2023-02-03T05:14:21;101504.0;;;24.13;25.17
48530;BME280;34927;37.302;-121.982;2023-02-03T05:15:27;101503.0;;;24.47;24.81
48530;BME280;34927;37.302;-121.982;2023-02-03T05:16:31;101502.0;;;24.73;24.50
48530;BME280;34927;37.302;-121.982;2023-02-03T05:17:37;101498.0;;;25.09;24.11
48530;BME280;34927;37.302;-121.982;2023-02-03T05:18:41;101499.0;;;25.20;23.92
48530;BME280;34927;37.302;-121.982;2023-02-03T05:19:47;101497.0;;;25.12;24.01
48530;BME280;34927;37.302;-121.982;2023-02-03T05:20:52;101500.0;;;25.02;24.13
48530;BME280;34927;37.302;-121.982;2023-02-03T05:21:56;101499.0;;;24.74;24.54
48530;BME280;34927;37.302;-121.982;2023-02-03T05:23:02;101498.0;;;24.38;24.88
48530;BME280;34927;37.302;-121.982;2023-02-03T05:24:07;101496.0;;;24.08;25.24
48530;BME280;34927;37.302;-121.982;2023-02-03T05:25:12;101498.0;;;24.12;25.14
48530;BME280;34927;37.302;-121.982;2023-02-03T05:26:16;101500.0;;;24.11;25.04
48530;BME280;34927;37.302;-121.982;2023-02-03T05:27:22;101499.0;;;24.06;25.11
48530;BME280;34927;37.302;-121.982;2023-02-03T05:28:27;101496.0;;;24.10;25.13
48530;BME280;34927;37.302;-121.982;2023-02-03T05:29:31;101496.0;;;24.13;25.01
48530;BME280;34927;37.302;-121.982;2023-02-03T05:30:37;101495.0;;;23.88;25.29
48530;BME280;34927;37.302;-121.982;2023-02-03T05:31:42;101496.0;;;23.81;25.34
48530;BME280;34927;37.302;-121.982;2023-02-03T05:32:52;101495.0;;;23.63;25.74
48530;BME280;34927;37.302;-121.982;2023-02-03T05:33:57;101494.0;;;23.63;25.53
48530;BME280;34927;37.302;-121.982;2023-02-03T05:35:01;101496.0;;;23.58;25.75
48530;BME280;34927;37.302;-121.982;2023-02-03T05:36:09;101497.0;;;23.85;25.26
48530;BME280;34927;37.302;-121.982;2023-02-03T05:37:12;101500.0;;;24.19;24.85
48530;BME280;34927;37.302;-121.982;2023-02-03T05:38:16;101502.0;;;24.45;24.44
48530;BME280;34927;37.302;-121.982;2023-02-03T05:39:21;101497.0;;;24.77;24.07
48530;BME280;34927;37.302;-121.982;2023-02-03T05:40:27;101494.0;;;25.08;23.79
48530;BME280;34927;37.302;-121.982;2023-02-03T05:41:32;101497.0;;;25.34;23.49
48530;BME280;34927;37.302;-121.982;2023-02-03T05:42:36;101494.0;;;25.35;23.43
48530;BME280;34927;37.302;-121.982;2023-02-03T05:43:42;101495.0;;;25.11;23.68
48530;BME280;34927;37.302;-121.982;2023-02-03T05:44:46;101494.0;;;25.09;23.85
48530;BME280;34927;37.302;-121.982;2023-02-03T05:45:52;101491.0;;;24.69;24.34
48530;BME280;34927;37.302;-121.982;2023-02-03T05:46:58;101491.0;;;24.50;24.49
48530;BME280;34927;37.302;-121.982;2023-02-03T05:48:01;101488.0;;;24.49;24.56
48530;BME280;34927;37.302;-121.982;2023-02-03T05:49:06;101487.0;;;24.28;24.92